sensor_id;sensor_type;location;lat;lon;timestamp;temperature;humidity
14357;DHT22;7262;48.764;9.166;2022-12-29T00:01:32;6.90;99.90
14357;DHT22;7262;48.764;9.166;2022-12-29T00:04:02;6.90;99.90
14357;DHT22;7262;48.764;9.166;2022-12-29T00:06:29;6.90;99.90
14357;DHT22;7262;48.764;9.166;2022-12-29T00:08:56;7.00;99.90
14357;DHT22;7262;48.764;9.166;2022-12-29T00:11:24;7.00;99.90
14357;DHT22;7262;48.764;9.166;2022-12-29T00:13:51;7.00;99.90
14357;DHT22;7262;48.764;9.166;2022-12-29T00:16:36;7.10;99.90
14357;DHT22;7262;48.764;9.166;2022-12-29T00:19:04;7.10;99.90
14357;DHT22;7262;48.764;9.166;2022-12-29T00:21:52;7.10;99.90
14357;DHT22;7262;48.764;9.166;2022-12-29T00:24:37;7.20;99.90
14357;DHT22;7262;48.764;9.166;2022-12-29T00:27:21;7.20;99.90
14357;DHT22;7262;48.764;9.166;2022-12-29T00:30:07;7.20;99.90
14357;DHT22;7262;48.764;9.166;2022-12-29T00:32:52;7.30;99.90
14357;DHT22;7262;48.764;9.166;2022-12-29T00:35:39;7.30;99.90
14357;DHT22;7262;48.764;9.166;2022-12-29T00:38:08;7.20;99.90
14357;DHT22;7262;48.764;9.166;2022-12-29T00:40:53;7.30;99.90
14357;DHT22;7262;48.764;9.166;2022-12-29T00:43:37;7.20;99.90
14357;DHT22;7262;48.764;9.166;2022-12-29T00:46:21;7.20;99.90
14357;DHT22;7262;48.764;9.166;2022-12-29T00:48:48;7.20;99.90
14357;DHT22;7262;48.764;9.166;2022-12-29T00:51:33;7.20;99.90
14357;DHT22;7262;48.764;9.166;2022-12-29T00:54:00;7.30;99.90
14357;DHT22;7262;48.764;9.166;2022-12-29T00:56:27;7.30;99.90
14357;DHT22;7262;48.764;9.166;2022-12-29T00:58:54;7.30;99.90
14357;DHT22;7262;48.764;9.166;2022-12-29T01:01:21;7.30;99.90
14357;DHT22;7262;48.764;9.166;2022-12-29T01:03:48;7.30;99.90
14357;DHT22;7262;48.764;9.166;2022-12-29T01:06:14;7.40;99.90
14357;DHT22;7262;48.764;9.166;2022-12-29T01:08:43;7.40;99.90
14357;DHT22;7262;48.764;9.166;2022-12-29T01:11:11;7.40;99.90
14357;DHT22;7262;48.764;9.166;2022-12-29T01:13:37;7.60;99.90
14357;DHT22;7262;48.764;9.166;2022-12-29T01:16:06;7.70;99.90
14357;DHT22;7262;48.764;9.166;2022-12-29T01:18:33;7.70;99.90
14357;DHT22;7262;48.764;9.166;2022-12-29T01:21:00;7.70;99.90
14357;DHT22;7262;48.764;9.166;2022-12-29T01:23:27;7.70;99.90
14357;DHT22;7262;48.764;9.166;2022-12-29T01:25:56;7.60;99.90
14357;DHT22;7262;48.764;9.166;2022-12-29T01:28:23;7.60;99.90
14357;DHT22;7262;48.764;9.166;2022-12-29T01:30:50;7.80;99.90
14357;DHT22;7262;48.764;9.166;2022-12-29T01:33:17;7.80;99.90
14357;DHT22;7262;48.764;9.166;2022-12-29T01:35:44;7.90;99.90
14357;DHT22;7262;48.764;9.166;2022-12-29T01:38:10;7.90;99.90
14357;DHT22;7262;48.764;9.166;2022-12-29T01:40:42;7.90;99.90
14357;DHT22;7262;48.764;9.166;2022-12-29T01:43:12;7.80;99.90
14357;DHT22;7262;48.764;9.166;2022-12-29T01:45:40;7.80;99.90
14357;DHT22;7262;48.764;9.166;2022-12-29T01:48:08;7.70;99.90
14357;DHT22;7262;48.764;9.166;2022-12-29T01:50:37;7.70;99.90
14357;DHT22;7262;48.764;9.166;2022-12-29T01:53:05;7.70;99.90
14357;DHT22;7262;48.764;9.166;2022-12-29T01:55:34;7.60;99.90
14357;DHT22;7262;48.764;9.166;2022-12-29T01:58:04;7.60;99.90
14357;DHT22;7262;48.764;9.166;2022-12-29T02:00:32;7.60;99.90
14357;DHT22;7262;48.764;9.166;2022-12-29T02:02:59;7.60;99.90
14357;DHT22;7262;48.764;9.166;2022-12-29T02:05:27;7.50;99.90
14357;DHT22;7262;48.764;9.166;2022-12-29T02:07:55;7.50;99.90
14357;DHT22;7262;48.764;9.166;2022-12-29T02:10:22;7.50;99.90
14357;DHT22;7262;48.764;9.166;2022-12-29T02:12:50;7.60;99.90
14357;DHT22;7262;48.764;9.166;2022-12-29T02:15:17;7.50;99.90
14357;DHT22;7262;48.764;9.166;2022-12-29T02:17:50;7.50;99.90
14357;DHT22;7262;48.764;9.166;2022-12-29T02:20:26;7.40;99.90
14357;DHT22;7262;48.764;9.166;2022-12-29T02:23:03;7.40;99.90
14357;DHT22;7262;48.764;9.166;2022-12-29T02:25:52;7.40;99.90
14357;DHT22;7262;48.764;9.166;2022-12-29T02:28:31;7.30;99.90
14357;DHT22;7262;48.764;9.166;2022-12-29T02:31:14;7.30;99.90
14357;DHT22;7262;48.764;9.166;2022-12-29T02:33:46;7.30;99.90
14357;DHT22;7262;48.764;9.166;2022-12-29T02:36:18;7.30;99.90
14357;DHT22;7262;48.764;9.166;2022-12-29T02:38:50;7.30;99.90
14357;DHT22;7262;48.764;9.166;2022-12-29T02:41:19;7.30;99.90
14357;DHT22;7262;48.764;9.166;2022-12-29T02:43:50;7.30;99.90
14357;DHT22;7262;48.764;9.166;2022-12-29T02:46:20;7.30;99.90
14357;DHT22;7262;48.764;9.166;2022-12-29T02:48:50;7.30;99.90
14357;DHT22;7262;48.764;9.166;2022-12-29T02:51:22;7.20;99.90
14357;DHT22;7262;48.764;9.166;2022-12-29T02:53:50;7.20;99.90
14357;DHT22;7262;48.764;9.166;2022-12-29T02:56:34;7.20;99.90
14357;DHT22;7262;48.764;9.166;2022-12-29T02:59:02;7.20;99.90
14357;DHT22;7262;48.764;9.166;2022-12-29T03:01:33;7.20;99.90
14357;DHT22;7262;48.764;9.166;2022-12-29T03:04:10;7.20;99.90
14357;DHT22;7262;48.764;9.166;2022-12-29T03:06:43;7.20;99.90
14357;DHT22;7262;48.764;9.166;2022-12-29T03:09:19;7.20;99.90
14357;DHT22;7262;48.764;9.166;2022-12-29T03:11:48;7.20;99.90
14357;DHT22;7262;48.764;9.166;2022-12-29T03:14:37;7.10;99.90
14357;DHT22;7262;48.764;9.166;2022-12-29T03:17:26;7.10;99.90
14357;DHT22;7262;48.764;9.166;2022-12-29T03:19:56;7.00;99.90
14357;DHT22;7262;48.764;9.166;2022-12-29T03:22:26;7.00;99.90
14357;DHT22;7262;48.764;9.166;2022-12-29T03:24:54;7.00;99.90
14357;DHT22;7262;48.764;9.166;2022-12-29T03:27:22;7.10;99.90
14357;DHT22;7262;48.764;9.166;2022-12-29T03:29:52;7.20;99.90
14357;DHT22;7262;48.764;9.166;2022-12-29T03:32:20;7.20;99.90
14357;DHT22;7262;48.764;9.166;2022-12-29T03:34:49;7.20;99.90
14357;DHT22;7262;48.764;9.166;2022-12-29T03:37:18;7.20;99.90
14357;DHT22;7262;48.764;9.166;2022-12-29T03:39:46;7.20;99.90
14357;DHT22;7262;48.764;9.166;2022-12-29T03:42:14;7.20;99.90
14357;DHT22;7262;48.764;9.166;2022-12-29T03:44:42;7.30;99.90
14357;DHT22;7262;48.764;9.166;2022-12-29T03:47:10;7.30;99.90
14357;DHT22;7262;48.764;9.166;2022-12-29T03:49:37;7.50;99.90
14357;DHT22;7262;48.764;9.166;2022-12-29T03:52:05;7.90;99.90
14357;DHT22;7262;48.764;9.166;2022-12-29T03:54:32;8.30;99.90
14357;DHT22;7262;48.764;9.166;2022-12-29T03:56:59;8.90;99.90
14357;DHT22;7262;48.764;9.166;2022-12-29T03:59:26;9.40;99.90
14357;DHT22;7262;48.764;9.166;2022-12-29T04:01:53;10.00;99.90
14357;DHT22;7262;48.764;9.166;2022-12-29T04:04:20;10.60;99.90
14357;DHT22;7262;48.764;9.166;2022-12-29T04:06:47;10.70;99.90
14357;DHT22;7262;48.764;9.166;2022-12-29T04:09:15;10.80;99.90
14357;DHT22;7262;48.764;9.166;2022-12-29T04:11:42;10.70;99.90
14357;DHT22;7262;48.764;9.166;2022-12-29T04:14:09;10.60;99.90
14357;DHT22;7262;48.764;9.166;2022-12-29T04:16:36;10.70;99.90
14357;DHT22;7262;48.764;9.166;2022-12-29T04:19:04;10.70;99.90
14357;DHT22;7262;48.764;9.166;2022-12-29T04:21:31;10.70;99.90
14357;DHT22;7262;48.764;9.166;2022-12-29T04:23:57;10.80;99.90
14357;DHT22;7262;48.764;9.166;2022-12-29T04:26:26;10.80;99.90
14357;DHT22;7262;48.764;9.166;2022-12-29T04:28:53;10.60;99.90
14357;DHT22;7262;48.764;9.166;2022-12-29T04:31:19;10.40;99.90
14357;DHT22;7262;48.764;9.166;2022-12-29T04:33:46;10.20;99.90
14357;DHT22;7262;48.764;9.166;2022-12-29T04:36:13;9.90;99.90
14357;DHT22;7262;48.764;9.166;2022-12-29T04:38:40;9.90;99.90
14357;DHT22;7262;48.764;9.166;2022-12-29T04:41:07;10.00;99.90
14357;DHT22;7262;48.764;9.166;2022-12-29T04:43:35;10.10;99.90
14357;DHT22;7262;48.764;9.166;2022-12-29T04:46:02;10.10;99.90
14357;DHT22;7262;48.764;9.166;2022-12-29T04:48:28;10.20;99.90
14357;DHT22;7262;48.764;9.166;2022-12-29T04:50:55;10.30;99.90
14357;DHT22;7262;48.764;9.166;2022-12-29T04:53:22;10.40;99.90
14357;DHT22;7262;48.764;9.166;2022-12-29T04:55:50;10.60;99.90
14357;DHT22;7262;48.764;9.166;2022-12-29T04:58:16;10.50;99.90
14357;DHT22;7262;48.764;9.166;2022-12-29T05:00:45;10.60;99.90
14357;DHT22;7262;48.764;9.166;2022-12-29T05:03:11;10.60;99.90
14357;DHT22;7262;48.764;9.166;2022-12-29T05:05:38;10.80;99.90
14357;DHT22;7262;48.764;9.166;2022-12-29T05:08:05;10.70;99.90
14357;DHT22;7262;48.764;9.166;2022-12-29T05:10:31;10.80;99.90
14357;DHT22;7262;48.764;9.166;2022-12-29T05:12:58;10.80;99.90
14357;DHT22;7262;48.764;9.166;2022-12-29T05:15:26;10.90;99.90
14357;DHT22;7262;48.764;9.166;2022-12-29T05:17:54;11.20;99.90
14357;DHT22;7262;48.764;9.166;2022-12-29T05:20:21;11.30;99.90
14357;DHT22;7262;48.764;9.166;2022-12-29T05:22:49;11.30;99.90
14357;DHT22;7262;48.764;9.166;2022-12-29T05:25:16;11.30;99.90
14357;DHT22;7262;48.764;9.166;2022-12-29T05:27:43;11.20;99.90
14357;DHT22;7262;48.764;9.166;2022-12-29T05:30:11;11.30;99.90
14357;DHT22;7262;48.764;9.166;2022-12-29T05:32:37;11.30;99.90
14357;DHT22;7262;48.764;9.166;2022-12-29T05:35:06;11.30;99.90
14357;DHT22;7262;48.764;9.166;2022-12-29T05:37:35;11.40;99.90
14357;DHT22;7262;48.764;9.166;2022-12-29T05:40:02;11.30;99.90
14357;DHT22;7262;48.764;9.166;2022-12-29T05:42:30;11.20;99.90
14357;DHT22;7262;48.764;9.166;2022-12-29T05:44:57;11.20;99.90
14357;DHT22;7262;48.764;9.166;2022-12-29T05:47:24;11.10;99.90
14357;DHT22;7262;48.764;9.166;2022-12-29T05:49:51;11.10;99.90
14357;DHT22;7262;48.764;9.166;2022-12-29T05:52:19;11.10;99.90
14357;DHT22;7262;48.764;9.166;2022-12-29T05:54:46;11.20;99.90
14357;DHT22;7262;48.764;9.166;2022-12-29T05:57:13;11.20;99.90
14357;DHT22;7262;48.764;9.166;2022-12-29T05:59:39;11.40;99.90
14357;DHT22;7262;48.764;9.166;2022-12-29T06:02:06;11.30;99.90
14357;DHT22;7262;48.764;9.166;2022-12-29T06:04:33;11.20;99.90
14357;DHT22;7262;48.764;9.166;2022-12-29T06:07:00;11.30;99.90
14357;DHT22;7262;48.764;9.166;2022-12-29T06:09:28;11.30;99.90
14357;DHT22;7262;48.764;9.166;2022-12-29T06:11:55;11.40;99.90
14357;DHT22;7262;48.764;9.166;2022-12-29T06:14:22;11.40;99.90
14357;DHT22;7262;48.764;9.166;2022-12-29T06:16:48;11.40;99.90
14357;DHT22;7262;48.764;9.166;2022-12-29T06:19:15;11.40;99.90
14357;DHT22;7262;48.764;9.166;2022-12-29T06:21:42;11.50;99.90
14357;DHT22;7262;48.764;9.166;2022-12-29T06:24:09;11.60;99.90
14357;DHT22;7262;48.764;9.166;2022-12-29T06:26:37;11.50;99.90
14357;DHT22;7262;48.764;9.166;2022-12-29T06:29:05;11.50;99.90
14357;DHT22;7262;48.764;9.166;2022-12-29T06:31:33;11.50;99.90
14357;DHT22;7262;48.764;9.166;2022-12-29T06:34:00;11.50;99.90
14357;DHT22;7262;48.764;9.166;2022-12-29T06:36:28;11.40;99.90
14357;DHT22;7262;48.764;9.166;2022-12-29T06:38:55;11.40;99.90
14357;DHT22;7262;48.764;9.166;2022-12-29T06:41:21;11.30;99.90
14357;DHT22;7262;48.764;9.166;2022-12-29T06:43:50;11.20;99.90
14357;DHT22;7262;48.764;9.166;2022-12-29T06:46:17;11.10;99.90
14357;DHT22;7262;48.764;9.166;2022-12-29T06:48:44;11.10;99.90
14357;DHT22;7262;48.764;9.166;2022-12-29T06:51:12;11.10;99.90
14357;DHT22;7262;48.764;9.166;2022-12-29T06:53:38;11.00;99.90
14357;DHT22;7262;48.764;9.166;2022-12-29T06:56:06;11.10;99.90
14357;DHT22;7262;48.764;9.166;2022-12-29T06:58:33;11.10;99.90
14357;DHT22;7262;48.764;9.166;2022-12-29T07:01:01;11.10;99.90
14357;DHT22;7262;48.764;9.166;2022-12-29T07:03:28;11.00;99.90
14357;DHT22;7262;48.764;9.166;2022-12-29T07:05:55;11.00;99.90
14357;DHT22;7262;48.764;9.166;2022-12-29T07:08:23;11.00;99.90
14357;DHT22;7262;48.764;9.166;2022-12-29T07:10:50;10.90;99.90
14357;DHT22;7262;48.764;9.166;2022-12-29T07:13:16;10.80;99.90
14357;DHT22;7262;48.764;9.166;2022-12-29T07:15:43;10.70;99.90
14357;DHT22;7262;48.764;9.166;2022-12-29T07:18:11;10.70;99.90
14357;DHT22;7262;48.764;9.166;2022-12-29T07:20:38;10.60;99.90
14357;DHT22;7262;48.764;9.166;2022-12-29T07:23:05;10.60;99.90
14357;DHT22;7262;48.764;9.166;2022-12-29T07:25:32;10.60;99.90
14357;DHT22;7262;48.764;9.166;2022-12-29T07:28:00;10.60;99.90
14357;DHT22;7262;48.764;9.166;2022-12-29T07:30:27;10.50;99.90
14357;DHT22;7262;48.764;9.166;2022-12-29T07:32:54;10.40;99.90
14357;DHT22;7262;48.764;9.166;2022-12-29T07:35:22;10.20;99.90
14357;DHT22;7262;48.764;9.166;2022-12-29T07:37:49;10.10;99.90
14357;DHT22;7262;48.764;9.166;2022-12-29T07:40:16;10.30;99.90
14357;DHT22;7262;48.764;9.166;2022-12-29T07:42:43;10.10;99.90
14357;DHT22;7262;48.764;9.166;2022-12-29T07:45:10;10.10;99.90
14357;DHT22;7262;48.764;9.166;2022-12-29T07:47:37;10.20;99.90
14357;DHT22;7262;48.764;9.166;2022-12-29T07:50:04;10.10;99.90
14357;DHT22;7262;48.764;9.166;2022-12-29T07:52:32;10.20;99.90
14357;DHT22;7262;48.764;9.166;2022-12-29T07:54:59;10.40;99.90
14357;DHT22;7262;48.764;9.166;2022-12-29T07:57:26;10.40;99.90
14357;DHT22;7262;48.764;9.166;2022-12-29T07:59:52;10.40;99.90
14357;DHT22;7262;48.764;9.166;2022-12-29T08:02:19;10.50;99.90
14357;DHT22;7262;48.764;9.166;2022-12-29T08:04:46;10.70;99.90
14357;DHT22;7262;48.764;9.166;2022-12-29T08:07:13;10.70;99.90
14357;DHT22;7262;48.764;9.166;2022-12-29T08:09:42;10.80;99.90
14357;DHT22;7262;48.764;9.166;2022-12-29T08:12:09;10.90;99.90
14357;DHT22;7262;48.764;9.166;2022-12-29T08:14:36;10.90;99.90
14357;DHT22;7262;48.764;9.166;2022-12-29T08:17:04;10.90;99.90
14357;DHT22;7262;48.764;9.166;2022-12-29T08:19:31;10.90;99.90
14357;DHT22;7262;48.764;9.166;2022-12-29T08:21:58;10.90;99.90
14357;DHT22;7262;48.764;9.166;2022-12-29T08:24:25;10.90;99.90
14357;DHT22;7262;48.764;9.166;2022-12-29T08:26:54;10.80;99.90
14357;DHT22;7262;48.764;9.166;2022-12-29T08:29:20;10.80;99.90
14357;DHT22;7262;48.764;9.166;2022-12-29T08:31:47;10.70;99.90
14357;DHT22;7262;48.764;9.166;2022-12-29T08:34:14;10.60;99.90
14357;DHT22;7262;48.764;9.166;2022-12-29T08:36:41;10.60;99.90
14357;DHT22;7262;48.764;9.166;2022-12-29T08:39:08;10.50;99.90
14357;DHT22;7262;48.764;9.166;2022-12-29T08:41:35;10.60;99.90
14357;DHT22;7262;48.764;9.166;2022-12-29T08:44:04;10.50;99.90
14357;DHT22;7262;48.764;9.166;2022-12-29T08:46:31;10.50;99.90
14357;DHT22;7262;48.764;9.166;2022-12-29T08:48:58;10.70;99.90
14357;DHT22;7262;48.764;9.166;2022-12-29T08:51:24;10.80;99.90
14357;DHT22;7262;48.764;9.166;2022-12-29T08:53:52;10.90;99.90
14357;DHT22;7262;48.764;9.166;2022-12-29T08:56:19;11.10;99.90
14357;DHT22;7262;48.764;9.166;2022-12-29T08:58:45;11.00;99.90
14357;DHT22;7262;48.764;9.166;2022-12-29T09:01:14;10.90;99.90
14357;DHT22;7262;48.764;9.166;2022-12-29T09:03:40;10.90;99.90
14357;DHT22;7262;48.764;9.166;2022-12-29T09:06:07;10.80;99.90
14357;DHT22;7262;48.764;9.166;2022-12-29T09:08:34;10.90;99.90
14357;DHT22;7262;48.764;9.166;2022-12-29T09:11:07;10.90;99.90
14357;DHT22;7262;48.764;9.166;2022-12-29T09:13:34;10.90;99.90
14357;DHT22;7262;48.764;9.166;2022-12-29T09:16:01;10.90;99.90
14357;DHT22;7262;48.764;9.166;2022-12-29T09:18:33;11.00;99.90
14357;DHT22;7262;48.764;9.166;2022-12-29T09:21:01;11.10;99.90
14357;DHT22;7262;48.764;9.166;2022-12-29T09:23:38;11.30;99.90
14357;DHT22;7262;48.764;9.166;2022-12-29T09:26:06;11.30;99.90
14357;DHT22;7262;48.764;9.166;2022-12-29T09:28:33;11.30;99.90
14357;DHT22;7262;48.764;9.166;2022-12-29T09:30:59;11.50;99.90
14357;DHT22;7262;48.764;9.166;2022-12-29T09:33:26;11.60;99.90
14357;DHT22;7262;48.764;9.166;2022-12-29T09:35:55;11.80;99.90
14357;DHT22;7262;48.764;9.166;2022-12-29T09:38:23;12.00;99.90
14357;DHT22;7262;48.764;9.166;2022-12-29T09:40:51;12.00;99.90
14357;DHT22;7262;48.764;9.166;2022-12-29T09:46:05;12.20;99.90
14357;DHT22;7262;48.764;9.166;2022-12-29T09:48:36;12.30;99.90
14357;DHT22;7262;48.764;9.166;2022-12-29T09:51:08;12.30;99.90
14357;DHT22;7262;48.764;9.166;2022-12-29T09:53:36;12.40;99.90
14357;DHT22;7262;48.764;9.166;2022-12-29T09:56:19;12.40;99.90
14357;DHT22;7262;48.764;9.166;2022-12-29T09:58:48;12.70;99.90
14357;DHT22;7262;48.764;9.166;2022-12-29T10:01:21;12.80;99.90
14357;DHT22;7262;48.764;9.166;2022-12-29T10:03:49;12.80;99.90
14357;DHT22;7262;48.764;9.166;2022-12-29T10:06:20;12.80;99.90
14357;DHT22;7262;48.764;9.166;2022-12-29T10:08:49;12.80;99.90
14357;DHT22;7262;48.764;9.166;2022-12-29T10:11:23;12.70;99.90
14357;DHT22;7262;48.764;9.166;2022-12-29T10:13:57;12.60;99.90
14357;DHT22;7262;48.764;9.166;2022-12-29T10:16:31;12.70;99.90
14357;DHT22;7262;48.764;9.166;2022-12-29T10:21:52;12.90;99.90
14357;DHT22;7262;48.764;9.166;2022-12-29T10:24:21;12.90;99.90
14357;DHT22;7262;48.764;9.166;2022-12-29T10:26:48;13.00;99.90
14357;DHT22;7262;48.764;9.166;2022-12-29T10:29:18;12.90;99.90
14357;DHT22;7262;48.764;9.166;2022-12-29T10:31:46;13.10;99.90
14357;DHT22;7262;48.764;9.166;2022-12-29T10:34:15;13.10;99.90
14357;DHT22;7262;48.764;9.166;2022-12-29T10:36:45;13.30;99.90
14357;DHT22;7262;48.764;9.166;2022-12-29T10:39:16;13.20;99.90
14357;DHT22;7262;48.764;9.166;2022-12-29T10:41:46;13.40;99.90
14357;DHT22;7262;48.764;9.166;2022-12-29T10:44:15;13.50;99.90
14357;DHT22;7262;48.764;9.166;2022-12-29T10:46:42;13.70;99.90
14357;DHT22;7262;48.764;9.166;2022-12-29T10:49:13;13.90;99.90
14357;DHT22;7262;48.764;9.166;2022-12-29T10:51:41;14.00;99.90
14357;DHT22;7262;48.764;9.166;2022-12-29T10:54:10;14.10;99.90
14357;DHT22;7262;48.764;9.166;2022-12-29T10:56:40;14.40;99.90
14357;DHT22;7262;48.764;9.166;2022-12-29T10:59:11;14.60;99.90
14357;DHT22;7262;48.764;9.166;2022-12-29T11:01:41;14.80;99.90
14357;DHT22;7262;48.764;9.166;2022-12-29T11:04:17;14.90;99.90
14357;DHT22;7262;48.764;9.166;2022-12-29T11:06:48;14.90;99.90
14357;DHT22;7262;48.764;9.166;2022-12-29T11:09:16;14.80;99.90
14357;DHT22;7262;48.764;9.166;2022-12-29T11:11:47;14.70;99.90
14357;DHT22;7262;48.764;9.166;2022-12-29T11:14:14;14.50;99.90
14357;DHT22;7262;48.764;9.166;2022-12-29T11:16:58;14.50;99.90
14357;DHT22;7262;48.764;9.166;2022-12-29T11:19:25;14.20;99.90
14357;DHT22;7262;48.764;9.166;2022-12-29T11:21:53;14.20;99.90
14357;DHT22;7262;48.764;9.166;2022-12-29T11:24:25;14.10;99.90
14357;DHT22;7262;48.764;9.166;2022-12-29T11:26:54;13.90;99.90
14357;DHT22;7262;48.764;9.166;2022-12-29T11:29:26;14.00;99.90
14357;DHT22;7262;48.764;9.166;2022-12-29T11:31:54;13.90;99.90
14357;DHT22;7262;48.764;9.166;2022-12-29T11:34:23;13.90;99.90
14357;DHT22;7262;48.764;9.166;2022-12-29T11:36:51;13.70;99.90
14357;DHT22;7262;48.764;9.166;2022-12-29T11:39:33;13.80;99.90
14357;DHT22;7262;48.764;9.166;2022-12-29T11:42:06;13.70;99.90
14357;DHT22;7262;48.764;9.166;2022-12-29T11:44:38;13.50;99.90
14357;DHT22;7262;48.764;9.166;2022-12-29T11:47:08;13.30;99.90
14357;DHT22;7262;48.764;9.166;2022-12-29T11:49:38;13.30;99.90
14357;DHT22;7262;48.764;9.166;2022-12-29T11:52:06;13.10;99.90
14357;DHT22;7262;48.764;9.166;2022-12-29T11:54:34;13.00;99.90
14357;DHT22;7262;48.764;9.166;2022-12-29T11:57:10;13.00;99.90
14357;DHT22;7262;48.764;9.166;2022-12-29T11:59:39;13.00;99.90
14357;DHT22;7262;48.764;9.166;2022-12-29T12:02:23;13.10;99.90
14357;DHT22;7262;48.764;9.166;2022-12-29T12:04:53;12.90;99.90
14357;DHT22;7262;48.764;9.166;2022-12-29T12:07:25;12.90;99.90
14357;DHT22;7262;48.764;9.166;2022-12-29T12:09:58;12.80;99.90
14357;DHT22;7262;48.764;9.166;2022-12-29T12:12:29;12.90;99.90
14357;DHT22;7262;48.764;9.166;2022-12-29T12:14:58;12.90;99.90
14357;DHT22;7262;48.764;9.166;2022-12-29T12:17:27;12.80;99.90
14357;DHT22;7262;48.764;9.166;2022-12-29T12:20:04;12.80;99.90
14357;DHT22;7262;48.764;9.166;2022-12-29T12:22:37;12.80;99.90
14357;DHT22;7262;48.764;9.166;2022-12-29T12:25:09;12.80;99.90
14357;DHT22;7262;48.764;9.166;2022-12-29T12:27:41;12.80;99.90
14357;DHT22;7262;48.764;9.166;2022-12-29T12:30:11;13.00;99.90
14357;DHT22;7262;48.764;9.166;2022-12-29T12:32:39;12.80;99.90
14357;DHT22;7262;48.764;9.166;2022-12-29T12:35:11;13.10;99.90
14357;DHT22;7262;48.764;9.166;2022-12-29T12:37:50;13.10;99.90
14357;DHT22;7262;48.764;9.166;2022-12-29T12:40:40;13.20;99.90
14357;DHT22;7262;48.764;9.166;2022-12-29T12:43:16;13.10;99.90
14357;DHT22;7262;48.764;9.166;2022-12-29T12:45:48;13.00;99.90
14357;DHT22;7262;48.764;9.166;2022-12-29T12:48:29;12.80;99.90
14357;DHT22;7262;48.764;9.166;2022-12-29T12:51:01;12.60;99.90
14357;DHT22;7262;48.764;9.166;2022-12-29T12:53:37;12.60;99.90
14357;DHT22;7262;48.764;9.166;2022-12-29T12:56:12;12.70;99.90
14357;DHT22;7262;48.764;9.166;2022-12-29T12:58:49;12.70;99.90
14357;DHT22;7262;48.764;9.166;2022-12-29T13:01:23;12.70;99.90
14357;DHT22;7262;48.764;9.166;2022-12-29T13:04:00;12.80;99.90
14357;DHT22;7262;48.764;9.166;2022-12-29T13:06:35;12.90;99.90
14357;DHT22;7262;48.764;9.166;2022-12-29T13:09:17;12.90;99.90
14357;DHT22;7262;48.764;9.166;2022-12-29T13:11:56;13.10;99.90
14357;DHT22;7262;48.764;9.166;2022-12-29T13:14:44;13.10;99.90
14357;DHT22;7262;48.764;9.166;2022-12-29T13:17:15;13.10;99.90
14357;DHT22;7262;48.764;9.166;2022-12-29T13:19:48;13.10;99.90
14357;DHT22;7262;48.764;9.166;2022-12-29T13:22:17;13.20;99.90
14357;DHT22;7262;48.764;9.166;2022-12-29T13:24:50;13.30;99.90
14357;DHT22;7262;48.764;9.166;2022-12-29T13:27:26;13.40;99.90
14357;DHT22;7262;48.764;9.166;2022-12-29T13:30:00;13.20;99.90
14357;DHT22;7262;48.764;9.166;2022-12-29T13:32:40;13.10;99.90
14357;DHT22;7262;48.764;9.166;2022-12-29T13:35:27;13.10;99.90
14357;DHT22;7262;48.764;9.166;2022-12-29T13:37:58;13.00;99.90
14357;DHT22;7262;48.764;9.166;2022-12-29T13:40:28;12.90;99.90
14357;DHT22;7262;48.764;9.166;2022-12-29T13:42:59;12.80;99.90
14357;DHT22;7262;48.764;9.166;2022-12-29T13:45:29;12.80;99.90
14357;DHT22;7262;48.764;9.166;2022-12-29T13:47:57;12.90;99.90
14357;DHT22;7262;48.764;9.166;2022-12-29T13:50:27;12.80;99.90
14357;DHT22;7262;48.764;9.166;2022-12-29T13:52:56;12.80;99.90
14357;DHT22;7262;48.764;9.166;2022-12-29T13:55:26;12.80;99.90
14357;DHT22;7262;48.764;9.166;2022-12-29T13:58:00;12.80;99.90
14357;DHT22;7262;48.764;9.166;2022-12-29T14:00:31;12.70;99.90
14357;DHT22;7262;48.764;9.166;2022-12-29T14:03:10;12.60;99.90
14357;DHT22;7262;48.764;9.166;2022-12-29T14:05:38;12.70;99.90
14357;DHT22;7262;48.764;9.166;2022-12-29T14:08:05;12.60;99.90
14357;DHT22;7262;48.764;9.166;2022-12-29T14:10:33;12.60;99.90
14357;DHT22;7262;48.764;9.166;2022-12-29T14:13:02;12.80;99.90
14357;DHT22;7262;48.764;9.166;2022-12-29T14:15:34;12.80;99.90
14357;DHT22;7262;48.764;9.166;2022-12-29T14:18:19;12.80;99.90
14357;DHT22;7262;48.764;9.166;2022-12-29T14:20:53;12.70;99.90
14357;DHT22;7262;48.764;9.166;2022-12-29T14:26:16;12.70;99.90
14357;DHT22;7262;48.764;9.166;2022-12-29T14:28:44;12.50;99.90
14357;DHT22;7262;48.764;9.166;2022-12-29T14:36:43;12.60;99.90
14357;DHT22;7262;48.764;9.166;2022-12-29T14:39:28;12.50;99.90
14357;DHT22;7262;48.764;9.166;2022-12-29T14:41:59;12.50;99.90
14357;DHT22;7262;48.764;9.166;2022-12-29T14:44:26;12.40;99.90
14357;DHT22;7262;48.764;9.166;2022-12-29T14:46:56;12.40;99.90
14357;DHT22;7262;48.764;9.166;2022-12-29T14:49:24;12.30;99.90
14357;DHT22;7262;48.764;9.166;2022-12-29T14:51:53;12.20;99.90
14357;DHT22;7262;48.764;9.166;2022-12-29T14:57:07;12.20;99.90
14357;DHT22;7262;48.764;9.166;2022-12-29T14:59:35;12.30;99.90
14357;DHT22;7262;48.764;9.166;2022-12-29T15:02:03;12.20;99.90
14357;DHT22;7262;48.764;9.166;2022-12-29T15:04:31;12.20;99.90
14357;DHT22;7262;48.764;9.166;2022-12-29T15:07:00;12.10;99.90
14357;DHT22;7262;48.764;9.166;2022-12-29T15:09:29;12.10;99.90
14357;DHT22;7262;48.764;9.166;2022-12-29T15:12:12;12.10;99.90
14357;DHT22;7262;48.764;9.166;2022-12-29T15:14:48;12.00;99.90
14357;DHT22;7262;48.764;9.166;2022-12-29T15:17:22;12.10;99.90
14357;DHT22;7262;48.764;9.166;2022-12-29T15:19:50;12.00;99.90
14357;DHT22;7262;48.764;9.166;2022-12-29T15:22:18;12.00;99.90
14357;DHT22;7262;48.764;9.166;2022-12-29T15:24:45;12.00;99.90
14357;DHT22;7262;48.764;9.166;2022-12-29T15:27:13;12.00;99.90
14357;DHT22;7262;48.764;9.166;2022-12-29T15:29:41;12.00;99.90
14357;DHT22;7262;48.764;9.166;2022-12-29T15:32:16;12.00;99.90
14357;DHT22;7262;48.764;9.166;2022-12-29T15:34:43;12.10;99.90
14357;DHT22;7262;48.764;9.166;2022-12-29T15:37:15;11.90;99.90
14357;DHT22;7262;48.764;9.166;2022-12-29T15:39:44;12.00;99.90
14357;DHT22;7262;48.764;9.166;2022-12-29T15:42:16;12.00;99.90
14357;DHT22;7262;48.764;9.166;2022-12-29T15:44:46;11.80;99.90
14357;DHT22;7262;48.764;9.166;2022-12-29T15:47:15;11.70;99.90
14357;DHT22;7262;48.764;9.166;2022-12-29T15:49:47;11.80;99.90
14357;DHT22;7262;48.764;9.166;2022-12-29T15:52:19;11.80;99.90
14357;DHT22;7262;48.764;9.166;2022-12-29T15:54:47;11.80;99.90
14357;DHT22;7262;48.764;9.166;2022-12-29T15:57:17;11.90;99.90
14357;DHT22;7262;48.764;9.166;2022-12-29T15:59:47;11.90;99.90
14357;DHT22;7262;48.764;9.166;2022-12-29T16:02:14;11.90;99.90
14357;DHT22;7262;48.764;9.166;2022-12-29T16:04:41;11.80;99.90
14357;DHT22;7262;48.764;9.166;2022-12-29T16:07:20;11.70;99.90
14357;DHT22;7262;48.764;9.166;2022-12-29T16:09:53;11.60;99.90
14357;DHT22;7262;48.764;9.166;2022-12-29T16:12:20;11.40;99.90
14357;DHT22;7262;48.764;9.166;2022-12-29T16:14:48;11.10;99.90
14357;DHT22;7262;48.764;9.166;2022-12-29T16:17:17;10.90;99.90
14357;DHT22;7262;48.764;9.166;2022-12-29T16:19:48;10.70;99.90
14357;DHT22;7262;48.764;9.166;2022-12-29T16:22:17;10.80;99.90
14357;DHT22;7262;48.764;9.166;2022-12-29T16:24:46;10.60;99.90